Terminal Aerodrome Forecast
Issued by NWS Binghamton, NY

Home | Current Version | Previous Version | Text Only | Print | Product List | Glossary On
Versions: 1 2 3 4 5 6 7 8 9 10 11 12 13 14 15 16 17 18 19
000
FTUS41 KBGM 171900 AAA
TAFSYR
TAF AMD
KSYR 171922Z 1719/1818 28007KT P6SM BKN050
     FM180100 26004KT P6SM SKC
     FM180800 30004KT P6SM SCT015 BKN050
      TEMPO 1810/1814 BKN015
     FM181500 36009KT P6SM OVC050=

USA.gov is the U.S. government's official web portal to all federal, state and local government web resources and services.